Aviation Digital Data Service (ADDS)

Output produced by METARs form (1809 UTC 18 February 2018)
found at http://www.aviationweather.gov/adds/metars/
 
KHEZ 181756Z AUTO 15007KT 10SM OVC007 16/14 A3020 RMK AO2 SLP228 60000 T01610144 10167 20111 58006
KHEZ 181708Z AUTO 17006KT 10SM OVC007 16/14 A3021 RMK AO2
KHEZ 181656Z AUTO 15006KT 10SM OVC005 16/14 A3021 RMK AO2 SLP233 T01560144
KHEZ 181556Z AUTO VRB03KT 10SM OVC005 14/13 A3021 RMK AO2 SLP234 T01390128
KHEZ 181456Z AUTO 10005KT 10SM OVC005 12/12 A3021 RMK AO2 SLP236 60000 T01220117 53008
KHEZ 181356Z AUTO 07005KT 10SM OVC005 12/11 A3021 RMK AO2 SLP234 T01170111
KHEZ 181256Z AUTO 06005KT 10SM OVC005 11/11 A3020 RMK AO2 RAE26 SLP229 P0000 T01110106
KHEZ 181156Z AUTO 06005KT 8SM -RA OVC005 11/11 A3019 RMK AO2 RAB1059 SLP228 P0001 60003 70027 T01110106 10122 20111 53001
KHEZ 181056Z AUTO 04004KT 10SM OVC005 11/11 A3019 RMK AO2 RAE48 SLP227 P0001 T01110106
KHEZ 180956Z AUTO 03006KT 7SM -RA OVC005 11/11 A3018 RMK AO2 CIG 003V010 SLP224 P0000 T01110106
KHEZ 180856Z AUTO 02005KT 6SM -RA BR OVC005 12/11 A3019 RMK AO2 RAB22 SLP226 P0001 60001 T01170111 55002
KHEZ 180838Z AUTO 05006KT 5SM -RA BR OVC005 12/11 A3019 RMK AO2 RAB22 P0000
KHEZ 180756Z AUTO 05005KT 10SM OVC003 12/11 A3018 RMK AO2 SLP223 T01170111
KHEZ 180656Z AUTO 03006KT 10SM OVC003 12/11 A3019 RMK AO2 SLP225 T01170111
KHEZ 180611Z AUTO 36006KT 10SM OVC003 12/11 A3020 RMK AO2
KHEZ 180556Z AUTO 01006KT 10SM OVC005 12/12 A3020 RMK AO2 RAE0458 SLP228 P0000 60013 T01220117 10133 20122 58001
KHEZ 180456Z AUTO 02006KT 10SM -RA OVC005 12/12 A3019 RMK AO2 RAB40 SLP227 P0000 T01220117 402500122
KHEZ 180356Z AUTO 01005KT 10SM OVC005 13/12 A3020 RMK AO2 RAE13 SLP231 P0000 T01280122
KHEZ 180256Z AUTO 04008KT 10SM -RA OVC005 13/12 A3020 RMK AO2 RAB21 CIG 004V009 SLP229 P0001 60013 T01280122 51013
KHEZ 180156Z AUTO 01008KT 10SM OVC005 13/12 A3019 RMK AO2 RAE38 SLP228 P0000 T01280122
KHEZ 180126Z AUTO 01007KT 10SM -RA OVC005 13/12 A3019 RMK AO2 P0000
KHEZ 180056Z AUTO 02008KT 6SM -RA BR BKN007 OVC016 13/12 A3018 RMK AO2 CIG 004V009 SLP222 P0012 T01280122
KHEZ 180020Z AUTO 01007KT 7SM -RA SCT004 OVC014 13/13 A3017 RMK AO2 P0004
KHEZ 172356Z AUTO 36010KT 6SM -RA BR OVC004 13/13 A3016 RMK AO2 WSHFT 2253 SLP216 P0010 60011 T01330128 10250 20133 53027
KHEZ 172312Z AUTO 35011G18KT 7SM -RA BKN004 BKN027 OVC036 16/15 A3013 RMK AO2 WSHFT 2253 CIG 004V011 P0006
KHEZ 172301Z AUTO 34011G26KT 4SM +RA BR FEW008 BKN027 OVC060 18/16 A3013 RMK AO2 PRESRR P0005 TSNO
KHEZ 172256Z AUTO 32018G26KT 7SM -RA FEW010 BKN035 OVC060 22/17 A3012 RMK AO2 PK WND 31026/2254 RAB27 PRESRR SLP202 P0001 T02170172
KHEZ 172156Z AUTO 23007KT 10SM FEW038 BKN065 OVC080 24/17 A3009 RMK AO2 SLP190 T02440172
KHEZ 172056Z AUTO 22008G14KT 10SM FEW047 BKN065 OVC080 24/17 A3008 RMK AO2 SLP188 60000 T02390172 56017
KHEZ 171956Z AUTO 24008KT 10SM SCT031 BKN055 OVC080 23/17 A3010 RMK AO2 RAB01E14 SLP193 P0000 T02330172
KHEZ 171856Z AUTO 25011G17KT 10SM SCT031 BKN038 OVC047 23/17 A3011 RMK AO2 SLP198 T02330172
KHEZ 171844Z AUTO 24009KT 10SM SCT026 BKN033 OVC047 23/17 A3012 RMK AO2
KHEZ 171825Z AUTO 20010KT 10SM BKN026 BKN033 OVC080 23/17 A3012 RMK AO2
KHEZ 171807Z AUTO 25010KT 10SM SCT026 BKN033 OVC080 23/17 A3012 RMK AO2
KHEZ 171756Z AUTO 24012G16KT 10SM FEW024 BKN029 BKN035 23/17 A3013 RMK AO2 SLP205 T02330172 10239 20139 50001
KHEZ 171656Z AUTO 22013G22KT 10SM BKN021 BKN036 OVC043 23/17 A3015 RMK AO2 SLP212 T02280172
KHEZ 171623Z AUTO VRB06KT 10SM BKN017 23/18 A3015 RMK AO2
KHEZ 171600Z AUTO 23009G16KT 10SM SCT010 22/18 A3014 RMK AO2 TSNO
KHEZ 171556Z AUTO 20008G16KT 180V240 10SM BKN008 21/18 A3014 RMK AO2 CIG 007V012 SLP210 T02110178
KHEZ 171520Z AUTO 21007KT 10SM OVC006 19/17 A3013 RMK AO2 CIG 004V007
KHEZ 171456Z AUTO 20007KT 10SM OVC004 18/17 A3013 RMK AO2 SLP205 T01780172 53013
KHEZ 171421Z AUTO 19008KT 3SM BR OVC002 17/16 A3011 RMK AO2
KHEZ 171412Z AUTO 20005KT 1 1/4SM BR OVC002 16/16 A3011 RMK AO2
KHEZ 171356Z AUTO 19007KT 3/4SM BR OVC002 16/16 A3010 RMK AO2 SLP197 T01560156
KHEZ 171349Z AUTO 19005KT 3/4SM BR OVC002 16/15 A3010 RMK AO2
KHEZ 171313Z AUTO 18004KT 1/2SM FG OVC004 14/14 A3009 RMK AO2
KHEZ 171306Z AUTO 17005KT 1/4SM FG OVC004 14/14 A3009 RMK AO2
KHEZ 171251Z AUTO 18003KT 1/2SM FG OVC004 14/14 A3009 RMK AO2
KHEZ 171242Z AUTO 19003KT 3/4SM BR OVC004 14/14 A3009 RMK AO2
KHEZ 171238Z AUTO 17003KT 1 1/4SM BR OVC004 14/14 A3009 RMK AO2
KHEZ 171156Z AUTO 00000KT 2SM BR OVC004 14/13 A3008 RMK AO2 SLP189 60000 7//// T01390133 10139 20128 55005
KHEZ 171147Z AUTO 00000KT 2 1/2SM BR OVC004 14/13 A3007 RMK AO2
KHEZ 171056Z AUTO 00000KT 7SM OVC004 14/13 A3007 RMK AO2 SLP186 T01390133
KHEZ 171045Z AUTO 00000KT 8SM OVC004 13/13 A3007 RMK AO2
KHEZ 171006Z AUTO 13003KT 5SM BR OVC002 13/13 A3007 RMK AO2
KHEZ 170956Z AUTO 13003KT 2SM BR OVC002 13/13 A3007 RMK AO2 SLP185 T01280128
KHEZ 170922Z AUTO 14003KT 2 1/2SM BR OVC002 13/12 A3008 RMK AO2 VIS 2V4
KHEZ 170856Z AUTO 12004KT 8SM OVC004 13/12 A3010 RMK AO2 SLP194 60000 T01280122 58015
KHEZ 170847Z AUTO 12004KT 9SM OVC004 13/12 A3010 RMK AO2
KHEZ 170756Z AUTO 07003KT 10SM OVC008 13/12 A3011 RMK AO2 SLP200 T01280117
KHEZ 170707Z AUTO 00000KT 10SM OVC008 13/12 A3013 RMK AO2
KHEZ 170656Z AUTO 05003KT 10SM OVC010 13/12 A3013 RMK AO2 RAE0558 SLP207 P0000 T01280117
KHEZ 170556Z AUTO 06003KT 10SM -RA OVC010 13/12 A3014 RMK AO2 RAB20 SLP210 P0000 60000 T01280117 10150 20128 58007
KHEZ 170456Z AUTO 06006KT 10SM OVC010 13/11 A3015 RMK AO2 SLP212 T01330111 402330128
KHEZ 170356Z AUTO 02005KT 10SM OVC010 13/11 A3016 RMK AO2 SLP214 T01280111
KHEZ 170256Z AUTO 02010KT 10SM OVC010 13/11 A3016 RMK AO2 SLP217 T01280111 50007
KHEZ 170156Z AUTO 02008KT 10SM OVC010 13/11 A3017 RMK AO2 SLP218 T01330111
KHEZ 170056Z AUTO 02009KT 10SM OVC010 13/11 A3016 RMK AO2 SLP214 T01330111
KHEZ 170035Z AUTO 02008KT 10SM BKN010 OVC030 13/12 A3015 RMK AO2
KHEZ 162356Z AUTO 35009KT 10SM OVC070 15/12 A3014 RMK AO2 SLP209 6//// T01500122 10233 20150 53011
KHEZ 162331Z AUTO 02012KT 10SM BKN030 OVC036 16/13 A3013 RMK AO2
KHEZ 162256Z AUTO 35013KT 10SM BKN026 BKN036 OVC070 18/14 A3012 RMK AO2 SLP202 T01780144
KHEZ 162253Z AUTO 35012KT 10SM BKN026 BKN039 OVC070 18/14 A3012 RMK AO2
KHEZ 162156Z AUTO 23003KT 10SM BKN040 OVC070 22/18 A3011 RMK AO2 SLP197 T02220178
KHEZ 162056Z AUTO 32005KT 10SM BKN033 OVC040 22/18 A3011 RMK AO2 RAE05 SLP199 P0000 6//// T02220178 56014
KHEZ 162012Z AUTO 00000KT 10SM FEW024 OVC035 22/18 A3011 RMK AO2 RAE05 P0000
KHEZ 161956Z AUTO 26004KT 8SM -RA BKN026 OVC032 22/18 A3012 RMK AO2 RAB49 SLP200 T02170183
KHEZ 161942Z AUTO 28005KT 10SM BKN029 OVC033 23/18 A3012 RMK AO2
KHEZ 161856Z AUTO 25006KT 10SM BKN032 OVC044 23/18 A3013 RMK AO2 SLP205 T02280178
KHEZ 161756Z AUTO 26010KT 10SM BKN030 OVC035 23/18 A3016 RMK AO2 SLP213 T02280178 10233 20189 58003
KHEZ 161742Z AUTO 24010KT 10SM SCT023 OVC032 23/18 A3016 RMK AO2
KHEZ 161727Z AUTO 25009KT 10SM BKN023 BKN028 OVC047 23/18 A3017 RMK AO2
KHEZ 161656Z AUTO 23011G17KT 10SM FEW028 SCT050 OVC060 23/18 A3017 RMK AO2 SLP218 T02280178
KHEZ 161654Z AUTO 22010G16KT 10SM SCT026 SCT050 OVC060 23/18 A3017 RMK AO2
KHEZ 161556Z AUTO 25012G19KT 10SM SCT021 BKN026 BKN043 22/18 A3016 RMK AO2 SLP216 T02220178
KHEZ 161512Z AUTO 23012G18KT 10SM SCT014 BKN020 22/18 A3016 RMK AO2
KHEZ 161456Z AUTO 24007G16KT 10SM BKN012 22/18 A3016 RMK AO2 SLP216 T02170183 53022
KHEZ 161432Z AUTO 22008G16KT 180V240 10SM BKN012 21/18 A3015 RMK AO2
KHEZ 161356Z AUTO 21007KT 10SM SCT014 OVC035 20/18 A3014 RMK AO2 SLP209 T02000183
KHEZ 161319Z AUTO 21006KT 10SM SCT012 OVC033 19/18 A3012 RMK AO2
KHEZ 161256Z AUTO 22005KT 10SM BKN014 BKN035 19/18 A3010 RMK AO2 SLP196 T01940178
KHEZ 161232Z AUTO 20007KT 10SM SCT016 BKN035 19/18 A3010 RMK AO2
KHEZ 161156Z AUTO 21008KT 10SM SCT018 BKN028 OVC035 19/18 A3010 RMK AO2 SLP194 T01940178 10194 20178 51005
KHEZ 161153Z AUTO 22006KT 10SM FEW014 BKN028 OVC035 19/18 A3010 RMK AO2
KHEZ 161143Z AUTO 22005KT 10SM FEW013 SCT026 OVC035 19/18 A3010 RMK AO2
KHEZ 161122Z AUTO 20006KT 10SM SCT010 BKN015 OVC034 19/18 A3009 RMK AO2
KHEZ 161056Z AUTO 22006KT 10SM BKN010 OVC015 19/18 A3009 RMK AO2 SLP190 T01940178
KHEZ 160856Z AUTO 20008KT 10SM BKN012 OVC022 19/17 A3008 RMK AO2 SLP187 T01890172 56006
KHEZ 160808Z AUTO 21008KT 10SM BKN014 OVC019 19/17 A3008 RMK AO2
KHEZ 160756Z AUTO 20008KT 10SM OVC017 19/17 A3008 RMK AO2 SLP188 T01890167
KHEZ 160745Z AUTO 20008KT 10SM OVC015 19/17 A3008 RMK AO2
KHEZ 160656Z AUTO 20008KT 10SM OVC013 18/17 A3009 RMK AO2 SLP191 T01830167
KHEZ 160634Z AUTO 21010G14KT 10SM BKN013 19/17 A3010 RMK AO2
KHEZ 160556Z AUTO 18005KT 10SM CLR 18/16 A3010 RMK AO2 SLP194 T01830156 10239 20183 53005
KHEZ 160456Z AUTO 20005KT 10SM CLR 20/16 A3009 RMK AO2 SLP190 T02000161 402720194
KHEZ 160356Z AUTO 20008KT 10SM CLR 21/17 A3008 RMK AO2 SLP188 T02060167
KHEZ 160256Z AUTO 20008KT 10SM CLR 21/16 A3008 RMK AO2 SLP189 T02110161 58003
KHEZ 160156Z AUTO 20007KT 10SM CLR 22/16 A3009 RMK AO2 SLP190 T02170161
KHEZ 160056Z AUTO 21009KT 10SM CLR 23/16 A3009 RMK AO2 SLP191 T02280156
KHEZ 152356Z AUTO 21009KT 10SM FEW045 SCT050 24/16 A3009 RMK AO2 SLP192 T02390161 10272 20239 56004
KHEZ 152256Z AUTO 23010G18KT 10SM CLR 24/16 A3010 RMK AO2 SLP193 T02440156
KHEZ 152156Z AUTO 20014G23KT 10SM FEW046 26/16 A3009 RMK AO2 SLP192 T02610156
KHEZ 152056Z AUTO 23016G25KT 10SM FEW048 27/16 A3010 RMK AO2 PK WND 22026/2043 SLP195 T02670156 56028
KHEZ 151956Z AUTO 23015G21KT 10SM SCT044 26/16 A3011 RMK AO2 PK WND 22027/1909 SLP198 T02610156
KHEZ 151856Z AUTO 22017G26KT 10SM SCT039 26/16 A3014 RMK AO2 PK WND 23026/1855 SLP209 T02560161